Time;durP1;ratioP1;P1;durP2;ratioP2;P2;SDS_P1;SDS_P2;PMS_P1;PMS_P2;Temp;Humidity;BMP_temperature;BMP_pressure;BME280_temperature;BME280_humidity;BME280_pressure;Samples;Min_cycle;Max_cycle;Signal;HPM_P1;HPM_P2
2023/06/24 00:02:08;;;;;;;3.97;3.72;;;;;;;;;;5081793;28;20197;-71
2023/06/24 00:04:36;;;;;;;4.15;3.72;;;;;;;;;;5081960;28;20495;-71
2023/06/24 00:07:02;;;;;;;3.85;3.63;;;;;;;;;;5081500;28;20207;-71
2023/06/24 00:09:29;;;;;;;4.60;4.30;;;;;;;;;;5081766;28;20201;-71
2023/06/24 00:11:56;;;;;;;3.92;3.60;;;;;;;;;;5081691;28;20466;-71
2023/06/24 00:14:23;;;;;;;4.18;3.95;;;;;;;;;;5081645;28;20196;-71
2023/06/24 00:16:51;;;;;;;4.40;4.10;;;;;;;;;;5081533;28;20283;-71
2023/06/24 00:19:18;;;;;;;3.97;3.78;;;;;;;;;;5081417;28;20242;-71
2023/06/24 00:21:46;;;;;;;3.95;3.65;;;;;;;;;;5083348;28;20200;-71
2023/06/24 00:24:12;;;;;;;4.07;3.78;;;;;;;;;;5085948;28;20412;-71
2023/06/24 00:26:38;;;;;;;4.07;3.88;;;;;;;;;;5085462;28;20198;-71
2023/06/24 00:29:05;;;;;;;4.50;4.13;;;;;;;;;;5085477;28;20220;-71
2023/06/24 00:31:31;;;;;;;4.20;3.95;;;;;;;;;;5085610;28;20196;-71
2023/06/24 00:33:57;;;;;;;4.20;3.90;;;;;;;;;;5085358;28;20509;-71
2023/06/24 00:36:23;;;;;;;4.30;4.00;;;;;;;;;;5085201;28;20201;-71
2023/06/24 00:38:51;;;;;;;4.53;4.22;;;;;;;;;;5085306;28;20206;-71
2023/06/24 00:41:18;;;;;;;3.90;3.70;;;;;;;;;;5085317;28;20196;-71
2023/06/24 00:43:44;;;;;;;4.38;4.07;;;;;;;;;;5085401;28;20548;-71
2023/06/24 00:46:11;;;;;;;4.13;3.83;;;;;;;;;;5085696;28;20220;-71
2023/06/24 00:48:37;;;;;;;4.35;4.05;;;;;;;;;;5085206;28;20200;-71
2023/06/24 00:51:03;;;;;;;4.65;4.35;;;;;;;;;;5085389;28;20196;-71
2023/06/24 00:53:30;;;;;;;4.30;4.00;;;;;;;;;;5085107;28;20523;-71
2023/06/24 00:56:01;;;;;;;4.40;4.00;;;;;;;;;;5084948;28;20396;-71
2023/06/24 00:58:30;;;;;;;4.72;4.32;;;;;;;;;;5085079;28;20292;-71
2023/06/24 01:00:58;;;;;;;4.60;4.30;;;;;;;;;;5085278;28;20200;-71
2023/06/24 01:03:25;;;;;;;4.35;4.05;;;;;;;;;;5084961;28;20208;-71
2023/06/24 01:05:51;;;;;;;4.25;3.95;;;;;;;;;;5084824;28;20200;-71
2023/06/24 01:08:19;;;;;;;4.05;3.70;;;;;;;;;;5084678;28;20215;-71
2023/06/24 01:10:45;;;;;;;5.18;4.78;;;;;;;;;;5084578;28;20196;-71
2023/06/24 01:13:13;;;;;;;4.38;4.07;;;;;;;;;;5084714;28;20404;-71
2023/06/24 01:15:39;;;;;;;4.15;3.95;;;;;;;;;;5084522;28;20196;-71
2023/06/24 01:18:08;;;;;;;4.65;4.30;;;;;;;;;;5084736;28;20226;-71
2023/06/24 01:20:41;;;;;;;4.15;3.95;;;;;;;;;;5084466;28;20224;-71
2023/06/24 01:23:37;;;;;;;4.63;4.32;;;;;;;;;;5084422;28;20196;-71
2023/06/24 01:26:18;;;;;;;4.15;3.85;;;;;;;;;;5084309;28;20196;-71
2023/06/24 01:29:06;;;;;;;4.75;4.35;;;;;;;;;;5050759;28;20216;-71
2023/06/24 01:31:36;;;;;;;5.15;4.65;;;;;;;;;;5084468;28;20263;-71
2023/06/24 01:34:11;;;;;;;4.80;4.40;;;;;;;;;;5082962;28;20267;-71
2023/06/24 01:36:39;;;;;;;5.28;4.95;;;;;;;;;;5084050;28;20203;-71
2023/06/24 01:39:09;;;;;;;4.88;4.47;;;;;;;;;;5084251;28;20199;-71
2023/06/24 01:41:40;;;;;;;4.68;4.38;;;;;;;;;;5084094;28;20219;-71
2023/06/24 01:44:09;;;;;;;4.97;4.53;;;;;;;;;;5083613;28;20408;-71
2023/06/24 01:46:37;;;;;;;4.97;4.68;;;;;;;;;;5084157;28;20282;-71
2023/06/24 01:49:05;;;;;;;4.40;4.00;;;;;;;;;;5083896;28;20223;-71
2023/06/24 01:51:33;;;;;;;4.57;4.22;;;;;;;;;;5084028;28;20196;-71
2023/06/24 01:54:01;;;;;;;5.72;4.97;;;;;;;;;;5083895;28;20504;-71
2023/06/24 01:56:28;;;;;;;4.63;4.32;;;;;;;;;;5083769;28;20196;-71
2023/06/24 01:58:56;;;;;;;4.80;4.50;;;;;;;;;;5083358;28;20216;-71
2023/06/24 02:01:23;;;;;;;4.78;4.38;;;;;;;;;;5084071;28;20196;-71
2023/06/24 02:03:51;;;;;;;4.82;4.53;;;;;;;;;;5083724;28;20203;-71
2023/06/24 02:06:18;;;;;;;4.72;4.43;;;;;;;;;;5083716;28;20208;-71
2023/06/24 02:08:44;;;;;;;4.80;4.40;;;;;;;;;;5083225;28;20200;-71
2023/06/24 02:11:12;;;;;;;5.25;4.60;;;;;;;;;;5083484;28;20516;-71
2023/06/24 02:13:39;;;;;;;4.70;4.35;;;;;;;;;;5083258;28;20210;-71
2023/06/24 02:16:07;;;;;;;4.85;4.55;;;;;;;;;;5083422;28;20203;-71
2023/06/24 02:18:35;;;;;;;4.32;4.03;;;;;;;;;;5083166;28;20561;-71
2023/06/24 02:21:04;;;;;;;5.03;4.65;;;;;;;;;;5083246;28;20219;-71
2023/06/24 02:23:30;;;;;;;4.95;4.18;;;;;;;;;;5083357;28;20196;-71
2023/06/24 02:25:57;;;;;;;5.00;4.70;;;;;;;;;;5083153;28;20196;-71
2023/06/24 02:28:24;;;;;;;4.80;4.40;;;;;;;;;;5083270;28;20262;-71
2023/06/24 02:30:51;;;;;;;4.47;4.18;;;;;;;;;;5083121;28;20204;-71
2023/06/24 02:33:17;;;;;;;5.03;4.60;;;;;;;;;;5083074;28;20196;-71
2023/06/24 02:35:45;;;;;;;4.03;3.72;;;;;;;;;;5083025;28;20203;-71
2023/06/24 02:38:13;;;;;;;4.35;4.05;;;;;;;;;;5082819;28;20283;-71
2023/06/24 02:40:40;;;;;;;5.13;4.72;;;;;;;;;;5082780;28;20196;-71
2023/06/24 02:43:06;;;;;;;5.25;4.95;;;;;;;;;;5083001;28;20427;-71
2023/06/24 02:45:32;;;;;;;5.10;4.70;;;;;;;;;;5082699;28;20500;-71
2023/06/24 02:47:59;;;;;;;5.43;4.93;;;;;;;;;;5082755;28;20192;-71
2023/06/24 02:50:26;;;;;;;5.40;4.90;;;;;;;;;;5082591;28;20203;-71
2023/06/24 02:52:53;;;;;;;5.22;4.90;;;;;;;;;;5082644;28;20527;-71
2023/06/24 02:55:20;;;;;;;5.30;4.90;;;;;;;;;;5082865;28;20519;-71
2023/06/24 02:57:47;;;;;;;5.82;5.40;;;;;;;;;;5082648;28;20221;-71
2023/06/24 03:00:14;;;;;;;5.50;5.10;;;;;;;;;;5082601;28;20204;-71
2023/06/24 03:02:41;;;;;;;4.90;4.55;;;;;;;;;;5082461;28;20227;-71
2023/06/24 03:05:08;;;;;;;5.10;4.80;;;;;;;;;;5082550;28;20201;-71
2023/06/24 03:07:36;;;;;;;5.30;4.82;;;;;;;;;;5082166;28;20201;-71
2023/06/24 03:10:04;;;;;;;5.13;4.72;;;;;;;;;;5082393;28;20203;-71
2023/06/24 03:12:32;;;;;;;5.03;4.63;;;;;;;;;;5082664;28;20189;-71
2023/06/24 03:14:59;;;;;;;7.30;4.97;;;;;;;;;;5082606;28;20212;-71
2023/06/24 03:17:25;;;;;;;5.40;5.00;;;;;;;;;;5082154;28;20188;-71
2023/06/24 03:19:52;;;;;;;5.55;5.07;;;;;;;;;;5082123;28;20267;-71
2023/06/24 03:22:18;;;;;;;6.18;4.72;;;;;;;;;;5082121;28;20210;-71
2023/06/24 03:24:44;;;;;;;4.85;4.45;;;;;;;;;;5082471;28;20218;-71
2023/06/24 03:27:11;;;;;;;5.20;4.82;;;;;;;;;;5081963;28;20216;-71
2023/06/24 03:29:38;;;;;;;5.28;4.93;;;;;;;;;;5082012;28;20196;-71
2023/06/24 03:32:05;;;;;;;5.40;5.05;;;;;;;;;;5082124;28;20504;-71
2023/06/24 03:34:31;;;;;;;5.13;4.82;;;;;;;;;;5082049;28;20203;-71
2023/06/24 03:36:57;;;;;;;6.72;5.07;;;;;;;;;;5081905;28;20391;-71
2023/06/24 03:39:24;;;;;;;5.82;5.28;;;;;;;;;;5081995;28;20216;-71
2023/06/24 03:41:50;;;;;;;4.85;4.55;;;;;;;;;;5082118;28;20200;-71
2023/06/24 03:44:16;;;;;;;4.88;4.57;;;;;;;;;;5082159;28;20197;-71
2023/06/24 03:46:44;;;;;;;5.32;5.03;;;;;;;;;;5081936;28;20515;-71
2023/06/24 03:49:10;;;;;;;5.13;4.82;;;;;;;;;;5081948;28;20200;-71
2023/06/24 03:51:36;;;;;;;5.90;5.30;;;;;;;;;;5081914;28;20197;-71
2023/06/24 03:54:03;;;;;;;7.47;4.93;;;;;;;;;;5082224;28;20387;-71
2023/06/24 03:56:29;;;;;;;6.57;5.65;;;;;;;;;;5083471;28;20203;-71
2023/06/24 03:58:55;;;;;;;5.43;5.05;;;;;;;;;;5085943;28;20615;-71
2023/06/24 04:01:22;;;;;;;5.60;5.10;;;;;;;;;;5085987;28;20196;-71
2023/06/24 04:03:50;;;;;;;5.05;4.75;;;;;;;;;;5085901;28;20572;-71
2023/06/24 04:06:16;;;;;;;5.38;4.97;;;;;;;;;;5085957;28;20242;-71
2023/06/24 04:08:43;;;;;;;6.07;5.57;;;;;;;;;;5085685;28;20503;-71
2023/06/24 04:11:11;;;;;;;5.93;5.43;;;;;;;;;;5085905;28;20243;-71
2023/06/24 04:13:37;;;;;;;5.65;5.25;;;;;;;;;;5085718;28;20206;-71
2023/06/24 04:16:04;;;;;;;5.28;4.80;;;;;;;;;;5085612;28;20203;-70
2023/06/24 04:18:30;;;;;;;5.82;5.40;;;;;;;;;;5085542;28;20220;-70
2023/06/24 04:20:58;;;;;;;6.03;5.53;;;;;;;;;;5085450;28;20196;-70
2023/06/24 04:23:24;;;;;;;5.72;5.15;;;;;;;;;;5085640;28;20197;-70
2023/06/24 04:25:50;;;;;;;5.65;5.25;;;;;;;;;;5085936;28;20200;-70
2023/06/24 04:28:16;;;;;;;5.88;5.47;;;;;;;;;;5085752;28;20213;-70
2023/06/24 04:30:43;;;;;;;6.53;5.70;;;;;;;;;;5085489;28;20196;-70
2023/06/24 04:33:09;;;;;;;5.72;5.32;;;;;;;;;;5085399;28;20200;-70
2023/06/24 04:35:35;;;;;;;5.80;5.40;;;;;;;;;;5085347;28;20196;-70
2023/06/24 04:38:03;;;;;;;8.05;6.45;;;;;;;;;;5085409;28;20455;-70
2023/06/24 04:40:30;;;;;;;6.57;6.07;;;;;;;;;;5085089;28;20203;-70
2023/06/24 04:42:56;;;;;;;6.03;5.38;;;;;;;;;;5085297;28;20203;-70
2023/06/24 04:45:22;;;;;;;6.53;5.93;;;;;;;;;;5085189;28;20201;-70
2023/06/24 04:47:49;;;;;;;6.70;5.68;;;;;;;;;;5085014;28;20196;-70
2023/06/24 04:50:15;;;;;;;7.10;6.45;;;;;;;;;;5085151;28;20200;-70
2023/06/24 04:52:41;;;;;;;7.28;6.65;;;;;;;;;;5085035;28;20200;-70
2023/06/24 04:55:09;;;;;;;7.28;6.68;;;;;;;;;;5084984;28;20204;-70
2023/06/24 04:57:35;;;;;;;6.82;6.05;;;;;;;;;;5084880;28;20203;-70
2023/06/24 05:00:02;;;;;;;7.30;6.72;;;;;;;;;;5084432;28;20415;-70
2023/06/24 05:02:28;;;;;;;8.80;7.85;;;;;;;;;;5084877;28;20214;-70
2023/06/24 05:04:55;;;;;;;9.50;7.00;;;;;;;;;;5084966;28;20196;-70
2023/06/24 05:07:21;;;;;;;7.05;6.45;;;;;;;;;;5084573;28;20215;-70
2023/06/24 05:09:48;;;;;;;7.90;7.13;;;;;;;;;;5084564;28;20196;-70
2023/06/24 05:12:15;;;;;;;8.25;6.80;;;;;;;;;;5084682;28;20535;-70
2023/06/24 05:14:42;;;;;;;7.20;6.65;;;;;;;;;;5084373;28;20196;-70
2023/06/24 05:17:08;;;;;;;7.13;6.43;;;;;;;;;;5084432;28;20207;-70
2023/06/24 05:19:34;;;;;;;6.75;6.15;;;;;;;;;;5084058;28;20212;-70
2023/06/24 05:22:00;;;;;;;8.38;7.05;;;;;;;;;;5084562;28;20553;-70
2023/06/24 05:24:27;;;;;;;6.72;5.95;;;;;;;;;;5084419;28;20197;-70
2023/06/24 05:26:53;;;;;;;6.72;6.03;;;;;;;;;;5084241;28;20207;-70
2023/06/24 05:29:21;;;;;;;6.70;6.15;;;;;;;;;;5083879;28;20496;-70
2023/06/24 05:31:47;;;;;;;7.55;6.85;;;;;;;;;;5084355;28;20284;-70
2023/06/24 05:34:13;;;;;;;7.20;6.70;;;;;;;;;;5084105;28;20196;-70
2023/06/24 05:36:40;;;;;;;7.28;6.68;;;;;;;;;;5084157;28;20219;-70
2023/06/24 05:39:07;;;;;;;6.93;6.15;;;;;;;;;;5083954;28;20219;-70
2023/06/24 05:41:34;;;;;;;7.25;6.55;;;;;;;;;;5084140;28;20291;-70
2023/06/24 05:44:03;;;;;;;8.45;7.35;;;;;;;;;;5084192;28;20413;-70
2023/06/24 05:46:31;;;;;;;8.63;7.75;;;;;;;;;;5084192;28;20204;-70
2023/06/24 05:48:57;;;;;;;10.55;8.05;;;;;;;;;;5083782;28;20554;-70
2023/06/24 05:51:23;;;;;;;7.63;6.68;;;;;;;;;;5083972;28;20211;-70
2023/06/24 05:53:50;;;;;;;7.93;7.05;;;;;;;;;;5083868;28;20203;-70
2023/06/24 05:56:16;;;;;;;9.13;6.68;;;;;;;;;;5083914;28;20526;-70
2023/06/24 05:58:42;;;;;;;7.22;6.53;;;;;;;;;;5083808;28;20228;-70
2023/06/24 06:01:10;;;;;;;8.00;7.20;;;;;;;;;;5084148;28;20196;-70
2023/06/24 06:03:37;;;;;;;7.45;6.75;;;;;;;;;;5084206;28;20222;-70
2023/06/24 06:06:04;;;;;;;7.35;6.75;;;;;;;;;;5084077;28;20284;-70
2023/06/24 06:08:30;;;;;;;7.13;6.53;;;;;;;;;;5083850;28;20204;-70
2023/06/24 06:10:56;;;;;;;6.88;6.38;;;;;;;;;;5083647;28;20204;-70
2023/06/24 06:13:23;;;;;;;6.90;6.30;;;;;;;;;;5083829;28;20203;-70
2023/06/24 06:15:49;;;;;;;7.13;6.43;;;;;;;;;;5083855;28;20201;-70
2023/06/24 06:18:15;;;;;;;7.88;7.28;;;;;;;;;;5083437;28;20197;-70
2023/06/24 06:20:43;;;;;;;7.00;6.40;;;;;;;;;;5082983;28;20196;-70
2023/06/24 06:23:09;;;;;;;7.05;6.40;;;;;;;;;;5083620;28;20202;-70
2023/06/24 06:25:37;;;;;;;7.55;6.40;;;;;;;;;;5083397;28;20205;-70
2023/06/24 06:28:03;;;;;;;7.00;5.90;;;;;;;;;;5083424;28;20566;-70
2023/06/24 06:30:29;;;;;;;7.75;6.97;;;;;;;;;;5083227;28;20188;-70
2023/06/24 06:32:56;;;;;;;6.35;5.82;;;;;;;;;;5083321;28;20196;-71
2023/06/24 06:35:22;;;;;;;6.93;6.32;;;;;;;;;;5082938;28;20192;-70
2023/06/24 06:37:52;;;;;;;8.05;6.68;;;;;;;;;;5081942;28;20201;-70
2023/06/24 06:40:19;;;;;;;8.13;6.65;;;;;;;;;;5081778;28;20224;-70
2023/06/24 06:42:45;;;;;;;6.95;6.30;;;;;;;;;;5081991;28;20208;-70
2023/06/24 06:45:11;;;;;;;7.85;6.15;;;;;;;;;;5082079;28;20204;-70
2023/06/24 06:47:38;;;;;;;9.90;6.07;;;;;;;;;;5082038;28;20204;-70
2023/06/24 06:50:04;;;;;;;6.18;5.57;;;;;;;;;;5082882;28;20198;-70
2023/06/24 06:52:30;;;;;;;7.93;6.43;;;;;;;;;;5081076;28;20196;-70
2023/06/24 06:54:58;;;;;;;8.13;6.20;;;;;;;;;;5080768;28;20410;-70
2023/06/24 06:57:24;;;;;;;7.97;6.25;;;;;;;;;;5080908;28;20203;-70
2023/06/24 06:59:51;;;;;;;9.32;6.03;;;;;;;;;;5080854;28;20372;-71
2023/06/24 07:02:17;;;;;;;7.75;6.13;;;;;;;;;;5081196;28;20196;-70
2023/06/24 07:04:43;;;;;;;6.85;5.97;;;;;;;;;;5081070;28;20416;-70
2023/06/24 07:07:10;;;;;;;5.82;5.22;;;;;;;;;;5082099;28;20377;-70
2023/06/24 07:09:36;;;;;;;10.35;6.25;;;;;;;;;;5082689;28;20207;-70
2023/06/24 07:12:04;;;;;;;6.47;5.90;;;;;;;;;;5082619;28;20447;-71
2023/06/24 07:14:31;;;;;;;5.88;5.38;;;;;;;;;;5082759;28;20203;-70
2023/06/24 07:16:57;;;;;;;7.47;5.07;;;;;;;;;;5082407;28;20201;-70
2023/06/24 07:19:23;;;;;;;7.28;4.80;;;;;;;;;;5082563;28;20220;-70
2023/06/24 07:21:49;;;;;;;5.90;5.30;;;;;;;;;;5082781;28;20388;-70
2023/06/24 07:24:16;;;;;;;6.65;4.93;;;;;;;;;;5082327;28;20204;-70
2023/06/24 07:26:42;;;;;;;6.15;5.18;;;;;;;;;;5082336;28;20219;-70
2023/06/24 07:29:10;;;;;;;5.05;4.65;;;;;;;;;;5082253;28;20205;-70
2023/06/24 07:31:36;;;;;;;5.28;4.80;;;;;;;;;;5081352;28;20202;-70
2023/06/24 07:34:03;;;;;;;6.18;5.20;;;;;;;;;;5082331;28;20205;-70
2023/06/24 07:36:29;;;;;;;6.05;5.07;;;;;;;;;;5082205;28;20196;-70
2023/06/24 07:38:55;;;;;;;6.03;5.45;;;;;;;;;;5081970;28;20223;-70
2023/06/24 07:41:22;;;;;;;5.35;4.85;;;;;;;;;;5082263;28;20272;-70
2023/06/24 07:43:48;;;;;;;6.28;4.90;;;;;;;;;;5082277;28;20491;-70
2023/06/24 07:46:16;;;;;;;5.25;4.72;;;;;;;;;;5082198;28;20201;-71
2023/06/24 07:48:42;;;;;;;6.72;4.45;;;;;;;;;;5081857;28;20226;-70
2023/06/24 07:51:08;;;;;;;4.50;4.10;;;;;;;;;;5082006;28;20511;-71
2023/06/24 07:53:35;;;;;;;6.75;4.35;;;;;;;;;;5082103;28;20271;-71
2023/06/24 07:56:01;;;;;;;4.97;4.57;;;;;;;;;;5082050;28;20207;-71
2023/06/24 07:58:27;;;;;;;5.60;4.13;;;;;;;;;;5081954;28;20541;-71
2023/06/24 08:00:53;;;;;;;4.75;4.45;;;;;;;;;;5081551;28;20227;-71
2023/06/24 08:03:21;;;;;;;5.03;4.63;;;;;;;;;;5081728;28;20447;-71
2023/06/24 08:05:49;;;;;;;4.28;3.92;;;;;;;;;;5081809;28;20234;-71
2023/06/24 08:08:15;;;;;;;5.50;4.13;;;;;;;;;;5081980;28;20246;-71
2023/06/24 08:10:42;;;;;;;4.45;4.05;;;;;;;;;;5081697;28;20220;-71
2023/06/24 08:13:08;;;;;;;4.07;3.75;;;;;;;;;;5081759;28;20200;-71
2023/06/24 08:15:34;;;;;;;3.95;3.65;;;;;;;;;;5081766;28;20563;-71
2023/06/24 08:18:00;;;;;;;4.95;4.43;;;;;;;;;;5081444;28;20204;-71
2023/06/24 08:20:28;;;;;;;3.80;3.60;;;;;;;;;;5081653;28;20248;-71
2023/06/24 08:22:54;;;;;;;6.28;3.75;;;;;;;;;;5081715;28;20203;-71
2023/06/24 08:25:21;;;;;;;4.30;3.50;;;;;;;;;;5081661;28;20495;-71
2023/06/24 08:27:47;;;;;;;4.90;4.03;;;;;;;;;;5081588;28;20239;-70
2023/06/24 08:30:14;;;;;;;3.60;3.40;;;;;;;;;;5081365;28;20233;-70
2023/06/24 08:32:41;;;;;;;5.45;4.47;;;;;;;;;;5081473;28;20391;-70
2023/06/24 08:35:07;;;;;;;4.32;3.95;;;;;;;;;;5081811;28;20196;-70
2023/06/24 08:37:37;;;;;;;4.28;3.97;;;;;;;;;;5081733;28;20207;-70
2023/06/24 08:40:05;;;;;;;4.05;3.67;;;;;;;;;;5081229;28;20217;-70
2023/06/24 08:42:31;;;;;;;4.20;3.90;;;;;;;;;;5082730;28;20499;-70
2023/06/24 08:44:57;;;;;;;3.92;3.65;;;;;;;;;;5085139;28;20196;-70
2023/06/24 08:47:24;;;;;;;4.43;4.13;;;;;;;;;;5085274;28;20196;-71
2023/06/24 08:49:55;;;;;;;5.55;3.80;;;;;;;;;;5085289;28;20192;-71
2023/06/24 08:52:22;;;;;;;3.85;3.63;;;;;;;;;;5085322;28;20188;-72
2023/06/24 08:54:51;;;;;;;3.97;3.70;;;;;;;;;;5085366;28;20202;-71
2023/06/24 08:57:18;;;;;;;4.65;3.78;;;;;;;;;;5085225;28;20195;-71
2023/06/24 08:59:45;;;;;;;3.80;3.60;;;;;;;;;;5084915;28;20239;-71
2023/06/24 09:02:11;;;;;;;3.55;3.35;;;;;;;;;;5085306;28;20266;-72
2023/06/24 09:04:37;;;;;;;4.88;3.78;;;;;;;;;;5085134;28;20200;-72
2023/06/24 09:07:04;;;;;;;3.35;3.25;;;;;;;;;;5084699;28;20210;-72
2023/06/24 09:09:30;;;;;;;3.38;2.95;;;;;;;;;;5084698;28;20192;-72
2023/06/24 09:11:58;;;;;;;3.35;3.15;;;;;;;;;;5084765;28;20206;-72
2023/06/24 09:14:25;;;;;;;3.00;2.80;;;;;;;;;;5084815;28;20200;-71
2023/06/24 09:16:52;;;;;;;3.72;3.47;;;;;;;;;;5084841;28;20500;-71
2023/06/24 09:19:20;;;;;;;3.60;2.90;;;;;;;;;;5084546;28;20218;-71
2023/06/24 09:21:47;;;;;;;2.90;2.80;;;;;;;;;;5084720;28;20263;-71
2023/06/24 09:24:13;;;;;;;3.42;3.22;;;;;;;;;;5084633;28;20267;-72
2023/06/24 09:26:43;;;;;;;3.63;3.28;;;;;;;;;;5084421;28;20496;-72
2023/06/24 09:29:10;;;;;;;3.83;3.50;;;;;;;;;;5084590;28;20202;-72
2023/06/24 09:31:36;;;;;;;3.50;3.30;;;;;;;;;;5084420;28;20196;-72
2023/06/24 09:34:03;;;;;;;3.28;3.17;;;;;;;;;;5084440;28;20196;-72
2023/06/24 09:36:29;;;;;;;3.35;3.15;;;;;;;;;;5084169;28;20266;-72
2023/06/24 09:38:57;;;;;;;3.72;3.25;;;;;;;;;;5083868;28;20196;-72
2023/06/24 09:41:25;;;;;;;2.72;2.63;;;;;;;;;;5084114;28;20322;-72
2023/06/24 09:43:51;;;;;;;5.05;2.70;;;;;;;;;;5084260;28;20199;-72
2023/06/24 09:46:18;;;;;;;3.10;2.90;;;;;;;;;;5084022;28;20278;-72
2023/06/24 09:48:45;;;;;;;3.00;2.80;;;;;;;;;;5083979;28;20196;-72
2023/06/24 09:51:12;;;;;;;3.20;3.00;;;;;;;;;;5084013;28;20199;-72
2023/06/24 09:53:38;;;;;;;3.15;2.97;;;;;;;;;;5082957;28;20222;-72
2023/06/24 09:56:05;;;;;;;3.00;2.90;;;;;;;;;;5083977;28;20593;-72
2023/06/24 09:58:32;;;;;;;3.72;3.20;;;;;;;;;;5083965;28;20196;-72
2023/06/24 10:01:02;;;;;;;3.33;3.13;;;;;;;;;;5083446;28;20219;-72
2023/06/24 10:03:30;;;;;;;2.92;2.75;;;;;;;;;;5083731;28;20195;-72
2023/06/24 10:05:56;;;;;;;3.15;2.95;;;;;;;;;;5083653;28;20200;-72
2023/06/24 10:08:23;;;;;;;3.00;2.75;;;;;;;;;;5083306;28;20215;-72
2023/06/24 10:10:49;;;;;;;3.47;3.20;;;;;;;;;;5083419;28;20196;-72
2023/06/24 10:13:16;;;;;;;3.88;2.83;;;;;;;;;;5083573;28;20372;-72
2023/06/24 10:15:42;;;;;;;3.30;3.10;;;;;;;;;;5083496;28;20195;-72
2023/06/24 10:18:23;;;;;;;2.90;2.65;;;;;;;;;;5083477;28;20202;-72
2023/06/24 10:20:51;;;;;;;2.80;2.70;;;;;;;;;;5083015;28;20216;-73
2023/06/24 10:23:17;;;;;;;2.65;2.55;;;;;;;;;;5083632;28;20196;-72
2023/06/24 10:25:47;;;;;;;2.97;2.88;;;;;;;;;;5083284;28;20196;-73
2023/06/24 10:28:14;;;;;;;3.55;3.20;;;;;;;;;;5083200;28;20216;-72
2023/06/24 10:30:40;;;;;;;3.63;3.00;;;;;;;;;;5082984;28;20515;-72
2023/06/24 10:33:10;;;;;;;3.25;3.08;;;;;;;;;;5083753;28;20196;-72
2023/06/24 10:35:43;;;;;;;2.95;2.85;;;;;;;;;;5082893;28;20203;-72
2023/06/24 10:38:11;;;;;;;3.22;3.00;;;;;;;;;;5083177;28;20202;-72
2023/06/24 10:40:38;;;;;;;3.95;3.03;;;;;;;;;;5082895;28;20222;-73
2023/06/24 10:43:26;;;;;;;3.05;2.95;;;;;;;;;;5083487;28;20197;-72
2023/06/24 10:45:53;;;;;;;2.80;2.70;;;;;;;;;;5082855;28;20203;-72
2023/06/24 10:48:20;;;;;;;3.00;2.80;;;;;;;;;;5083168;28;20195;-72
2023/06/24 10:50:46;;;;;;;3.30;3.20;;;;;;;;;;5082878;28;20491;-72
2023/06/24 10:53:14;;;;;;;3.40;3.20;;;;;;;;;;5082984;28;20267;-72
2023/06/24 10:55:40;;;;;;;3.10;3.00;;;;;;;;;;5082783;28;20196;-73
2023/06/24 10:58:11;;;;;;;3.50;3.20;;;;;;;;;;5082783;28;20496;-72
2023/06/24 11:00:37;;;;;;;3.20;3.00;;;;;;;;;;5082395;28;20216;-72
2023/06/24 11:03:08;;;;;;;3.00;2.80;;;;;;;;;;5082844;28;20381;-72
2023/06/24 11:05:34;;;;;;;3.15;2.95;;;;;;;;;;5082240;28;20368;-72
2023/06/24 11:08:01;;;;;;;2.63;2.53;;;;;;;;;;5082662;28;20226;-73
2023/06/24 11:10:29;;;;;;;4.43;2.92;;;;;;;;;;5082471;28;20191;-72
2023/06/24 11:12:57;;;;;;;2.80;2.70;;;;;;;;;;5082596;28;20196;-73
2023/06/24 11:15:23;;;;;;;3.22;3.05;;;;;;;;;;5082718;28;20219;-72
2023/06/24 11:17:51;;;;;;;3.15;3.05;;;;;;;;;;5082814;28;20207;-73
2023/06/24 11:20:17;;;;;;;2.72;2.63;;;;;;;;;;5082549;28;20226;-72
2023/06/24 11:22:44;;;;;;;2.85;2.65;;;;;;;;;;5082790;28;20196;-72
2023/06/24 11:25:15;;;;;;;2.88;2.67;;;;;;;;;;5082691;28;20203;-72
2023/06/24 11:27:43;;;;;;;2.88;2.78;;;;;;;;;;5082421;28;20390;-72
2023/06/24 11:30:09;;;;;;;2.55;2.50;;;;;;;;;;5082726;28;20195;-72
2023/06/24 11:32:36;;;;;;;2.90;2.70;;;;;;;;;;5082671;28;20640;-70
2023/06/24 11:35:03;;;;;;;2.85;2.75;;;;;;;;;;5082770;28;20204;-70
2023/06/24 11:37:31;;;;;;;2.83;2.72;;;;;;;;;;5082406;28;20229;-72
2023/06/24 11:40:02;;;;;;;2.78;2.67;;;;;;;;;;5082360;28;20192;-73
2023/06/24 11:42:29;;;;;;;2.50;2.40;;;;;;;;;;5082807;28;20336;-72
2023/06/24 11:45:01;;;;;;;2.45;2.35;;;;;;;;;;5082510;28;20275;-71
2023/06/24 11:47:27;;;;;;;4.10;2.75;;;;;;;;;;5082342;28;20203;-71
2023/06/24 11:49:57;;;;;;;2.55;2.45;;;;;;;;;;5082102;28;20199;-71
2023/06/24 11:52:28;;;;;;;2.70;2.60;;;;;;;;;;5082193;28;20196;-71
2023/06/24 11:54:54;;;;;;;2.80;2.50;;;;;;;;;;5082451;28;20203;-71
2023/06/24 11:57:20;;;;;;;2.92;2.70;;;;;;;;;;5082355;28;20504;-71
2023/06/24 11:59:52;;;;;;;2.42;2.33;;;;;;;;;;5082215;28;20230;-71
2023/06/24 12:02:20;;;;;;;2.67;2.58;;;;;;;;;;5082406;28;20207;-71
2023/06/24 12:04:46;;;;;;;2.83;2.72;;;;;;;;;;5082623;28;20200;-71
2023/06/24 12:07:13;;;;;;;4.03;2.33;;;;;;;;;;5082288;28;20219;-71
2023/06/24 12:09:39;;;;;;;2.42;2.33;;;;;;;;;;5082372;28;20267;-71
2023/06/24 12:12:06;;;;;;;2.50;2.40;;;;;;;;;;5082631;28;20398;-71
2023/06/24 12:14:32;;;;;;;3.75;2.83;;;;;;;;;;5082268;28;20263;-72
2023/06/24 12:16:59;;;;;;;3.05;2.85;;;;;;;;;;5083286;28;20203;-71
2023/06/24 12:19:26;;;;;;;2.70;2.60;;;;;;;;;;5086056;28;20199;-71
2023/06/24 12:21:53;;;;;;;2.78;2.67;;;;;;;;;;5086309;28;20212;-71
2023/06/24 12:24:19;;;;;;;2.92;2.72;;;;;;;;;;5086759;28;20202;-71
2023/06/24 12:26:46;;;;;;;2.63;2.42;;;;;;;;;;5086505;28;20540;-71
2023/06/24 12:29:13;;;;;;;2.63;2.42;;;;;;;;;;5086515;28;20373;-71
2023/06/24 12:31:39;;;;;;;2.78;2.63;;;;;;;;;;5086482;28;20192;-71
2023/06/24 12:34:06;;;;;;;2.92;2.83;;;;;;;;;;5086928;28;20274;-70
2023/06/24 12:36:33;;;;;;;3.67;2.50;;;;;;;;;;5086485;28;20202;-71
2023/06/24 12:38:59;;;;;;;2.80;2.60;;;;;;;;;;5085867;28;20223;-71
2023/06/24 12:41:27;;;;;;;2.47;2.38;;;;;;;;;;5085498;28;20549;-71
2023/06/24 12:43:54;;;;;;;2.58;2.47;;;;;;;;;;5085549;28;20503;-71
2023/06/24 12:46:20;;;;;;;2.65;2.45;;;;;;;;;;5085411;28;20200;-72
2023/06/24 12:48:46;;;;;;;2.60;2.50;;;;;;;;;;5084895;28;20208;-72
2023/06/24 12:51:13;;;;;;;2.47;2.38;;;;;;;;;;5085602;28;20192;-72
2023/06/24 12:53:40;;;;;;;2.50;2.30;;;;;;;;;;5085359;28;20196;-72
2023/06/24 12:56:08;;;;;;;2.65;2.45;;;;;;;;;;5085270;28;20200;-72
2023/06/24 12:58:34;;;;;;;2.88;2.67;;;;;;;;;;5085146;28;20266;-72
2023/06/24 13:01:01;;;;;;;3.35;2.50;;;;;;;;;;5084870;28;20216;-72
2023/06/24 13:03:27;;;;;;;2.55;2.33;;;;;;;;;;5084881;28;20203;-72
2023/06/24 13:05:54;;;;;;;3.03;2.60;;;;;;;;;;5084979;28;20232;-72
2023/06/24 13:08:20;;;;;;;2.50;2.40;;;;;;;;;;5084916;28;20204;-72
2023/06/24 13:10:47;;;;;;;2.58;2.47;;;;;;;;;;5084787;28;20192;-72
2023/06/24 13:13:14;;;;;;;2.60;2.50;;;;;;;;;;5085176;28;20530;-72
2023/06/24 13:15:40;;;;;;;2.33;2.25;;;;;;;;;;5084869;28;20196;-72
2023/06/24 13:18:07;;;;;;;2.60;2.35;;;;;;;;;;5084656;28;20200;-72
2023/06/24 13:20:33;;;;;;;2.85;2.67;;;;;;;;;;5084281;28;20196;-72
2023/06/24 13:22:59;;;;;;;2.70;2.60;;;;;;;;;;5084729;28;20534;-72
2023/06/24 13:25:25;;;;;;;2.80;2.60;;;;;;;;;;5084697;28;20571;-72
2023/06/24 13:27:53;;;;;;;2.80;2.70;;;;;;;;;;5084519;28;20247;-72
2023/06/24 13:30:20;;;;;;;2.10;2.00;;;;;;;;;;5084401;28;20445;-72
2023/06/24 13:32:46;;;;;;;2.40;2.30;;;;;;;;;;5084391;28;20294;-72
2023/06/24 13:35:12;;;;;;;2.72;2.63;;;;;;;;;;5084619;28;20203;-72
2023/06/24 13:37:39;;;;;;;2.70;2.60;;;;;;;;;;5084530;28;20545;-72
2023/06/24 13:40:06;;;;;;;2.72;2.63;;;;;;;;;;5084222;28;20196;-72
2023/06/24 13:42:33;;;;;;;2.53;2.33;;;;;;;;;;5084381;28;20531;-74
2023/06/24 13:45:00;;;;;;;2.78;2.67;;;;;;;;;;5084524;28;20203;-71
2023/06/24 13:47:27;;;;;;;2.60;2.50;;;;;;;;;;5084347;28;20195;-71
2023/06/24 13:49:53;;;;;;;3.10;2.90;;;;;;;;;;5084232;28;20195;-72
2023/06/24 13:52:20;;;;;;;3.45;2.20;;;;;;;;;;5084355;28;20522;-72
2023/06/24 13:54:47;;;;;;;2.75;2.55;;;;;;;;;;5084173;28;20196;-72
2023/06/24 13:57:13;;;;;;;2.58;2.47;;;;;;;;;;5084081;28;20503;-72
2023/06/24 13:59:39;;;;;;;2.65;2.40;;;;;;;;;;5083756;28;20204;-72
2023/06/24 14:02:07;;;;;;;3.00;2.80;;;;;;;;;;5083742;28;20484;-72
2023/06/24 14:04:34;;;;;;;2.28;2.17;;;;;;;;;;5084244;28;20362;-72
2023/06/24 14:07:02;;;;;;;2.75;2.63;;;;;;;;;;5084125;28;20204;-72
2023/06/24 14:09:28;;;;;;;2.92;2.72;;;;;;;;;;5083746;28;20363;-72
2023/06/24 14:11:55;;;;;;;2.83;2.63;;;;;;;;;;5083704;28;20422;-72
2023/06/24 14:14:21;;;;;;;2.92;2.65;;;;;;;;;;5083580;28;20242;-71
2023/06/24 14:16:48;;;;;;;3.08;2.55;;;;;;;;;;5083790;28;20195;-71
2023/06/24 14:19:15;;;;;;;2.90;2.70;;;;;;;;;;5083598;28;20196;-71
2023/06/24 14:21:41;;;;;;;2.60;2.50;;;;;;;;;;5083401;28;20261;-72
2023/06/24 14:24:10;;;;;;;2.75;2.65;;;;;;;;;;5083414;28;20362;-72
2023/06/24 14:26:36;;;;;;;4.95;2.55;;;;;;;;;;5083414;28;20519;-72
2023/06/24 14:29:03;;;;;;;3.20;2.40;;;;;;;;;;5083537;28;20227;-72
2023/06/24 14:31:29;;;;;;;2.50;2.40;;;;;;;;;;5083679;28;20264;-72
2023/06/24 14:33:55;;;;;;;2.63;2.53;;;;;;;;;;5083482;28;20214;-71
2023/06/24 14:36:23;;;;;;;2.58;2.47;;;;;;;;;;5083174;28;20196;-71
2023/06/24 14:38:49;;;;;;;2.53;2.42;;;;;;;;;;5082855;28;20217;-71
2023/06/24 14:41:16;;;;;;;2.50;2.40;;;;;;;;;;5082431;28;20219;-72
2023/06/24 14:43:42;;;;;;;2.53;2.33;;;;;;;;;;5083294;28;20227;-72